الصفحة الرئيسية
METAR-TAF:

METAR-TAF

مطار :

Tongatapu, تونجا

دائرة عرض: 21-14S, خط طول: 175-09W, ارتفاع: 38 متر

مراقبة الطقس الحالي

تاريخ ووقت الإصدار 9 دقيقة قبل الساعة 18:00UTC
رياح هادئة
درجة الحرارة 23°درجة مئوية
الرطوبة 94%
ضغط 1009 hPa
الرؤية 10 كم أو أكثر
غيوم قليلة على ارتفاع 800 قدم
غيوم متفرقة على ارتفاع 1500 قدم, مزن ركامية عمودية.
زخات في الجوار

METAR: NFTF 211800Z 00000KT 9999 VCSH FEW008 SCT015TCU 23/22 Q1009 RMK ADJACENT SHWR TO NW

زمن: 07:09 (18:09 UTC)

توقعات

تاريخ ووقت الإصدار 59 دقيقة قبل الساعة 17:10UTC
التوقعات صالحة من21 الساعة 18 UTC إلى 22 الساعة 18 UTC
ريح 8 عقدة من الجنوب/الجنوب الشرقي
الرؤية 10 كم أو أكثر
غيوم متفرقة على ارتفاع 1700 قدم

TAF: NFTF 211710Z 2118/2218 16008KT 9999 SCT017

أرصاد الطقس والتوقعات من أكثر من 4000 مطار (تقارير الطقس للمطار METAR والتنبؤ بالطقس بالمطارTAF).

المحطات المتاحة هي النقط الصفراء والحمراء على الخريطة.

حرك المؤشر فوق النقطة لمعرفة اسم المحطة.

ثم انقر لمعرفة أرصاد وتوقعات الطقس.

لتغيير الخارطة: اضغط على الأزرار الخضراء مع رمز الصليب الأسود للتكبير. على الزر الأخضر مع شرطة للتصغير، أو على الأسهم الخضراء للخرائط المجاورة.


METAR-TAF: